createdAt,value
2016-11-13T00:00:24.224Z,21.48
2016-11-13T00:01:04.933Z,21.67
2016-11-13T00:01:45.557Z,21.51
2016-11-13T00:02:26.295Z,21.46
2016-11-13T00:03:07.055Z,21.58
2016-11-13T00:03:47.733Z,21.56
2016-11-13T00:04:28.473Z,21.64
2016-11-13T00:05:09.155Z,21.59
2016-11-13T00:05:49.846Z,21.52
2016-11-13T00:06:30.733Z,21.48
2016-11-13T00:07:11.502Z,21.38
2016-11-13T00:07:52.305Z,21.48
2016-11-13T00:08:32.981Z,21.51
2016-11-13T00:09:13.711Z,21.42
2016-11-13T00:09:54.460Z,21.42
2016-11-13T00:10:35.117Z,21.45
2016-11-13T00:11:15.719Z,21.42
2016-11-13T00:11:56.340Z,21.46
2016-11-13T00:12:37.085Z,21.51
2016-11-13T00:13:17.789Z,21.46
2016-11-13T00:13:59.448Z,21.45
2016-11-13T00:14:40.196Z,21.43
2016-11-13T00:15:20.922Z,21.51
2016-11-13T00:16:01.585Z,21.46
2016-11-13T00:16:42.286Z,21.48
2016-11-13T00:17:23.047Z,21.53
2016-11-13T00:18:03.727Z,21.36
2016-11-13T00:18:44.484Z,21.42
2016-11-13T00:19:25.218Z,21.48
2016-11-13T00:20:05.968Z,21.51
2016-11-13T00:20:46.848Z,21.58
2016-11-13T00:21:27.643Z,21.51
2016-11-13T00:22:08.494Z,21.53
2016-11-13T00:22:49.132Z,21.56
2016-11-13T00:23:29.817Z,21.55
2016-11-13T00:24:10.448Z,21.51
2016-11-13T00:24:51.238Z,21.45
2016-11-13T00:25:31.819Z,21.51
2016-11-13T00:26:12.516Z,21.49
2016-11-13T00:26:53.282Z,21.49
2016-11-13T00:27:34.007Z,21.45
2016-11-13T00:28:14.663Z,21.46
2016-11-13T00:28:55.337Z,21.49
2016-11-13T00:29:36.262Z,21.45
2016-11-13T00:30:17.160Z,21.46
2016-11-13T00:30:57.840Z,21.56
2016-11-13T00:31:38.563Z,21.43
2016-11-13T00:32:19.284Z,21.49
2016-11-13T00:32:59.919Z,21.4
2016-11-13T00:33:40.570Z,21.49
2016-11-13T00:34:21.259Z,21.4
2016-11-13T00:35:01.955Z,21.43
2016-11-13T00:35:42.606Z,21.45
2016-11-13T00:36:23.327Z,21.42
2016-11-13T00:37:04.050Z,21.46
2016-11-13T00:37:44.853Z,21.46
2016-11-13T00:38:25.462Z,21.45
2016-11-13T00:39:07.058Z,21.42
2016-11-13T00:39:47.755Z,21.45
2016-11-13T00:40:28.720Z,21.49
2016-11-13T00:41:09.405Z,21.46
2016-11-13T00:41:50.051Z,21.51
2016-11-13T00:42:30.833Z,21.46
2016-11-13T00:43:11.463Z,21.48
2016-11-13T00:43:52.095Z,21.37
2016-11-13T00:44:32.843Z,21.33
2016-11-13T00:45:13.734Z,21.38
2016-11-13T00:45:54.380Z,21.4
2016-11-13T00:46:35.056Z,21.43
2016-11-13T00:47:15.708Z,21.36
2016-11-13T00:47:56.298Z,21.4
2016-11-13T00:48:36.894Z,21.46
2016-11-13T00:49:17.629Z,21.37
2016-11-13T00:49:58.412Z,21.43
2016-11-13T00:50:39.144Z,21.4
2016-11-13T00:51:19.850Z,21.4
2016-11-13T00:52:00.627Z,21.38
2016-11-13T00:52:41.396Z,21.3
2016-11-13T00:53:22.124Z,21.28
2016-11-13T00:54:02.686Z,21.28
2016-11-13T00:54:43.382Z,21.24
2016-11-13T00:55:24.112Z,21.33
2016-11-13T00:56:04.912Z,21.26
2016-11-13T00:56:45.577Z,21.28
2016-11-13T00:57:26.386Z,21.28
2016-11-13T00:58:07.001Z,21.27
2016-11-13T00:58:47.618Z,21.3
2016-11-13T00:59:28.209Z,21.33
2016-11-13T01:00:08.847Z,21.27
2016-11-13T01:00:49.584Z,21.28
2016-11-13T01:01:30.309Z,21.33
2016-11-13T01:02:10.943Z,21.28
2016-11-13T01:02:51.605Z,21.28
2016-11-13T01:03:32.333Z,21.31
2016-11-13T01:04:12.929Z,21.28
2016-11-13T01:04:53.653Z,21.36
2016-11-13T01:05:34.365Z,21.27
2016-11-13T01:06:15.213Z,21.26
2016-11-13T01:06:55.889Z,21.26
2016-11-13T01:07:36.720Z,21.38
2016-11-13T01:08:17.383Z,21.28
2016-11-13T01:08:58.138Z,21.38
2016-11-13T01:09:38.860Z,21.4
2016-11-13T01:10:19.569Z,21.38
2016-11-13T01:11:00.318Z,21.45
2016-11-13T01:11:41.151Z,21.45
2016-11-13T01:12:21.842Z,21.37
2016-11-13T01:13:02.487Z,21.48
2016-11-13T01:13:43.197Z,21.49
2016-11-13T01:14:23.863Z,21.48
2016-11-13T01:15:04.512Z,21.51
2016-11-13T01:15:45.231Z,21.36
2016-11-13T01:16:26.027Z,21.51
2016-11-13T01:17:06.682Z,21.43
2016-11-13T01:17:47.455Z,21.33
2016-11-13T01:18:28.108Z,21.4
2016-11-13T01:19:08.807Z,21.4
2016-11-13T01:19:49.408Z,21.33
2016-11-13T01:20:30.047Z,21.4
2016-11-13T01:21:10.904Z,21.34
2016-11-13T01:21:51.716Z,21.4
2016-11-13T01:22:32.406Z,21.45
2016-11-13T01:23:13.073Z,21.48
2016-11-13T01:23:53.732Z,21.45
2016-11-13T01:24:34.389Z,21.43
2016-11-13T01:25:15.067Z,21.42
2016-11-13T01:25:55.841Z,21.27
2016-11-13T01:26:36.446Z,21.28
2016-11-13T01:27:17.161Z,21.48
2016-11-13T01:27:57.853Z,21.38
2016-11-13T01:28:38.494Z,21.36
2016-11-13T01:29:19.130Z,21.42
2016-11-13T01:29:59.828Z,21.45
2016-11-13T01:30:40.627Z,21.49
2016-11-13T01:31:21.359Z,21.48
2016-11-13T01:32:01.990Z,21.46
2016-11-13T01:32:42.678Z,21.36
2016-11-13T01:33:23.343Z,21.46
2016-11-13T01:34:04.001Z,21.45
2016-11-13T01:34:44.706Z,21.45
2016-11-13T01:35:25.409Z,21.38
2016-11-13T01:36:06.081Z,21.38
2016-11-13T01:36:46.781Z,21.4
2016-11-13T01:37:27.547Z,21.43
2016-11-13T01:38:08.299Z,21.42
2016-11-13T01:38:48.957Z,21.4
2016-11-13T01:39:29.719Z,21.31
2016-11-13T01:40:10.468Z,21.3
2016-11-13T01:40:51.165Z,21.27
2016-11-13T01:41:31.828Z,21.27
2016-11-13T01:42:12.526Z,21.19
2016-11-13T01:42:53.087Z,21.31
2016-11-13T01:43:33.780Z,21.28
2016-11-13T01:44:14.478Z,21.33
2016-11-13T01:44:55.174Z,21.31
2016-11-13T01:45:35.896Z,21.16
2016-11-13T01:46:16.740Z,21.27
2016-11-13T01:46:57.405Z,21.21
2016-11-13T01:47:38.212Z,21.33
2016-11-13T01:48:18.972Z,21.22
2016-11-13T01:48:59.592Z,21.27
2016-11-13T01:49:40.271Z,21.38
2016-11-13T01:50:21.084Z,21.3
2016-11-13T01:51:01.818Z,21.26
2016-11-13T01:51:42.495Z,21.19
2016-11-13T01:52:23.137Z,21.28
2016-11-13T01:53:03.896Z,21.22
2016-11-13T01:53:44.526Z,21.31
2016-11-13T01:54:25.213Z,21.37
2016-11-13T01:55:05.993Z,21.28
2016-11-13T01:55:46.813Z,21.37
2016-11-13T01:56:27.503Z,21.36
2016-11-13T01:57:08.240Z,21.31
2016-11-13T01:57:48.827Z,21.34
2016-11-13T01:58:29.530Z,21.26
2016-11-13T01:59:10.217Z,21.13
2016-11-13T01:59:50.885Z,21.18
2016-11-13T02:00:31.539Z,21.13
2016-11-13T02:01:12.349Z,21.22
2016-11-13T02:01:52.987Z,21.22
2016-11-13T02:02:33.667Z,21.15
2016-11-13T02:03:14.425Z,21.24
2016-11-13T02:03:54.999Z,21.22
2016-11-13T02:04:35.826Z,21.33
2016-11-13T02:05:16.508Z,21.28
2016-11-13T02:05:57.224Z,21.31
2016-11-13T02:06:37.836Z,21.26
2016-11-13T02:07:18.519Z,21.3
2016-11-13T02:07:59.274Z,21.4
2016-11-13T02:08:39.920Z,21.46
2016-11-13T02:09:20.681Z,21.45
2016-11-13T02:10:01.512Z,21.36
2016-11-13T02:10:42.216Z,21.38
2016-11-13T02:11:22.843Z,21.27
2016-11-13T02:12:03.536Z,21.19
2016-11-13T02:12:44.221Z,21.26
2016-11-13T02:13:24.856Z,21.4
2016-11-13T02:14:05.603Z,21.27
2016-11-13T02:14:46.419Z,21.27
2016-11-13T02:15:27.199Z,21.38
2016-11-13T02:16:07.843Z,21.36
2016-11-13T02:16:48.568Z,21.34
2016-11-13T02:17:29.294Z,21.43
2016-11-13T02:18:10.061Z,21.33
2016-11-13T02:18:50.679Z,21.4
2016-11-13T02:19:31.381Z,21.4
2016-11-13T02:20:12.027Z,21.4
2016-11-13T02:20:52.699Z,21.45
2016-11-13T02:21:33.398Z,21.42
2016-11-13T02:22:13.995Z,21.46
2016-11-13T02:22:54.631Z,21.46
2016-11-13T02:23:35.295Z,21.36
2016-11-13T02:24:15.965Z,21.42
2016-11-13T02:24:56.739Z,21.3
2016-11-13T02:25:37.403Z,21.24
2016-11-13T02:26:18.061Z,21.26
2016-11-13T02:26:58.754Z,21.31
2016-11-13T02:27:39.397Z,21.33
2016-11-13T02:28:20.152Z,21.34
2016-11-13T02:29:00.862Z,21.4
2016-11-13T02:29:41.496Z,21.34
2016-11-13T02:30:22.230Z,21.38
2016-11-13T02:31:02.908Z,21.48
2016-11-13T02:31:43.599Z,21.38
2016-11-13T02:32:24.240Z,21.46
2016-11-13T02:33:05.058Z,21.46
2016-11-13T02:33:45.703Z,21.38
2016-11-13T02:34:26.403Z,21.38
2016-11-13T02:35:07.112Z,21.4
2016-11-13T02:35:47.781Z,21.43
2016-11-13T02:36:28.392Z,21.36
2016-11-13T02:37:09.021Z,21.38
2016-11-13T02:37:49.775Z,21.42
2016-11-13T02:38:30.543Z,21.33
2016-11-13T02:39:11.271Z,21.24
2016-11-13T02:39:51.950Z,21.26
2016-11-13T02:40:32.703Z,21.3
2016-11-13T02:41:13.427Z,21.26
2016-11-13T02:41:54.101Z,21.22
2016-11-13T02:42:34.790Z,21.28
2016-11-13T02:43:15.563Z,21.34
2016-11-13T02:43:56.367Z,21.4
2016-11-13T02:44:36.979Z,21.46
2016-11-13T02:45:17.721Z,21.37
2016-11-13T02:45:58.391Z,21.42
2016-11-13T02:46:39.117Z,21.4
2016-11-13T02:47:19.788Z,21.42
2016-11-13T02:48:00.389Z,21.37
2016-11-13T02:48:40.998Z,21.27
2016-11-13T02:49:21.726Z,21.27
2016-11-13T02:50:02.350Z,21.4
2016-11-13T02:50:43.086Z,21.34
2016-11-13T02:51:23.780Z,21.42
2016-11-13T02:52:04.501Z,21.27
2016-11-13T02:52:45.125Z,21.27
2016-11-13T02:53:25.791Z,21.3
2016-11-13T02:54:06.503Z,21.24
2016-11-13T02:54:47.287Z,21.19
2016-11-13T02:55:28.010Z,21.19
2016-11-13T02:56:08.692Z,21.24
2016-11-13T02:56:49.361Z,21.24
2016-11-13T02:57:30.043Z,21.26
2016-11-13T02:58:10.774Z,21.27
2016-11-13T02:58:51.450Z,21.28
2016-11-13T02:59:32.142Z,21.19
2016-11-13T03:00:12.858Z,21.19
2016-11-13T03:00:53.558Z,21.26
2016-11-13T03:01:34.195Z,21.24
2016-11-13T03:02:15.463Z,21.16
2016-11-13T03:02:55.445Z,21.12
2016-11-13T03:03:36.041Z,21.09
2016-11-13T03:04:16.867Z,21.16
2016-11-13T03:04:57.526Z,21.03
2016-11-13T03:05:38.304Z,21.09
2016-11-13T03:06:19.053Z,21.05
2016-11-13T03:06:59.747Z,21.11
2016-11-13T03:07:40.413Z,21.18
2016-11-13T03:08:21.034Z,21.19
2016-11-13T03:09:01.699Z,21.19
2016-11-13T03:09:42.369Z,21.13
2016-11-13T03:10:23.068Z,21.19
2016-11-13T03:11:03.699Z,21.13
2016-11-13T03:11:44.354Z,21.13
2016-11-13T03:12:25.077Z,21.15
2016-11-13T03:13:05.665Z,21.19
2016-11-13T03:13:46.341Z,21.19
2016-11-13T03:14:27.149Z,21.09
2016-11-13T03:15:07.997Z,21.13
2016-11-13T03:15:48.786Z,21.18
2016-11-13T03:16:29.449Z,21.21
2016-11-13T03:17:10.144Z,21.18
2016-11-13T03:17:50.809Z,21.24
2016-11-13T03:18:31.531Z,21.26
2016-11-13T03:19:12.223Z,21.27
2016-11-13T03:19:52.938Z,21.19
2016-11-13T03:20:33.696Z,21.15
2016-11-13T03:21:14.432Z,21.22
2016-11-13T03:21:55.140Z,21.22
2016-11-13T03:22:35.910Z,21.13
2016-11-13T03:23:16.635Z,21.15
2016-11-13T03:23:57.306Z,21.15
2016-11-13T03:24:37.990Z,21.13
2016-11-13T03:25:18.678Z,21.09
2016-11-13T03:25:59.381Z,21.08
2016-11-13T03:28:12.367Z,21.16
2016-11-13T03:28:53.037Z,21.03
2016-11-13T03:29:33.775Z,21.18
2016-11-13T03:30:14.502Z,21.15
2016-11-13T03:30:55.355Z,21.06
2016-11-13T03:31:36.075Z,21.11
2016-11-13T03:32:16.795Z,21.15
2016-11-13T03:32:57.500Z,21.08
2016-11-13T03:33:38.214Z,21.05
2016-11-13T03:34:19.013Z,21.06
2016-11-13T03:34:59.714Z,21.03
2016-11-13T03:35:40.400Z,21.05
2016-11-13T03:36:21.113Z,21.15
2016-11-13T03:37:01.757Z,21.11
2016-11-13T03:37:42.403Z,21.06
2016-11-13T03:38:23.062Z,21.21
2016-11-13T03:39:03.720Z,21.16
2016-11-13T03:39:44.350Z,21.16
2016-11-13T03:40:25.116Z,21.15
2016-11-13T03:41:05.805Z,21.05
2016-11-13T03:41:46.486Z,21.03
2016-11-13T03:42:27.232Z,21.03
2016-11-13T03:43:07.974Z,21.03
2016-11-13T03:43:48.784Z,20.93
2016-11-13T03:44:29.456Z,20.94
2016-11-13T03:45:10.287Z,21.01
2016-11-13T03:45:50.907Z,21.05
2016-11-13T03:46:31.492Z,20.96
2016-11-13T03:47:12.096Z,21
2016-11-13T03:47:52.815Z,21.05
2016-11-13T03:48:33.468Z,21
2016-11-13T03:49:14.110Z,21.03
2016-11-13T03:49:54.718Z,21.12
2016-11-13T03:50:35.418Z,21.11
2016-11-13T03:51:16.059Z,21.03
2016-11-13T03:51:56.777Z,21.08
2016-11-13T03:52:37.421Z,21.06
2016-11-13T03:53:18.103Z,21.03
2016-11-13T03:53:58.871Z,21.06
2016-11-13T03:54:39.609Z,21.11
2016-11-13T03:55:20.269Z,21.05
2016-11-13T03:56:00.971Z,21.12
2016-11-13T03:56:41.698Z,21.11
2016-11-13T03:57:22.359Z,21.08
2016-11-13T03:58:03.033Z,21.06
2016-11-13T03:58:43.665Z,21.06
2016-11-13T03:59:24.357Z,21.18
2016-11-13T04:00:04.981Z,21.15
2016-11-13T04:00:45.551Z,21.16
2016-11-13T04:01:26.135Z,21.11
2016-11-13T04:02:06.854Z,21.13
2016-11-13T04:02:47.499Z,21.06
2016-11-13T04:03:28.167Z,21.11
2016-11-13T04:04:08.839Z,21.05
2016-11-13T04:04:49.541Z,21.08
2016-11-13T04:05:30.262Z,21.12
2016-11-13T04:06:10.889Z,21.13
2016-11-13T04:06:51.534Z,21.12
2016-11-13T04:07:32.433Z,21.05
2016-11-13T04:08:13.168Z,21.09
2016-11-13T04:08:53.893Z,21.13
2016-11-13T04:09:34.584Z,21.08
2016-11-13T04:10:15.365Z,21.03
2016-11-13T04:10:56.005Z,21.15
2016-11-13T04:11:36.692Z,21.12
2016-11-13T04:12:17.394Z,21.15
2016-11-13T04:12:58.100Z,21.15
2016-11-13T04:13:38.736Z,21.11
2016-11-13T04:14:19.374Z,21.15
2016-11-13T04:14:59.998Z,21.19
2016-11-13T04:15:40.667Z,21.19
2016-11-13T04:16:21.402Z,21.11
2016-11-13T04:17:02.230Z,21.16
2016-11-13T04:17:42.872Z,21.13
2016-11-13T04:18:23.681Z,21.15
2016-11-13T04:19:04.311Z,21.11
2016-11-13T04:19:45.761Z,21.13
2016-11-13T04:20:26.436Z,21.08
2016-11-13T04:21:07.129Z,21.11
2016-11-13T04:21:47.784Z,21.11
2016-11-13T04:22:28.468Z,21.06
2016-11-13T04:23:09.193Z,21.18
2016-11-13T04:23:49.822Z,21.18
2016-11-13T04:24:30.568Z,21.16
2016-11-13T04:25:11.261Z,21.24
2016-11-13T04:25:51.829Z,21.26
2016-11-13T04:26:32.584Z,21.22
2016-11-13T04:27:13.330Z,21.16
2016-11-13T04:27:54.027Z,21.12
2016-11-13T04:28:35.193Z,21.12
2016-11-13T04:29:15.977Z,21.21
2016-11-13T04:29:56.745Z,21.06
2016-11-13T04:30:37.533Z,21.13
2016-11-13T04:31:18.312Z,21.15
2016-11-13T04:31:59.061Z,21.19
2016-11-13T04:32:39.785Z,21.11
2016-11-13T04:33:20.432Z,21.08
2016-11-13T04:34:01.094Z,21.18
2016-11-13T04:34:41.717Z,21.16
2016-11-13T04:35:22.357Z,21.19
2016-11-13T04:36:03.024Z,21.18
2016-11-13T04:36:43.668Z,21.12
2016-11-13T04:37:24.374Z,21.13
2016-11-13T04:38:04.996Z,21.11
2016-11-13T04:38:45.612Z,21.15
2016-11-13T04:39:26.270Z,21.16
2016-11-13T04:40:06.968Z,21.13
2016-11-13T04:40:47.722Z,21.24
2016-11-13T04:41:28.526Z,21.27
2016-11-13T04:42:09.212Z,21.26
2016-11-13T04:42:49.880Z,21.13
2016-11-13T04:43:30.564Z,21.19
2016-11-13T04:44:11.222Z,21.16
2016-11-13T04:44:52.047Z,21.15
2016-11-13T04:45:32.718Z,21.15
2016-11-13T04:46:13.336Z,21.18
2016-11-13T04:46:54.094Z,21.06
2016-11-13T04:47:34.679Z,21.11
2016-11-13T04:48:15.476Z,21.16
2016-11-13T04:48:56.267Z,21.06
2016-11-13T04:49:36.922Z,21.12
2016-11-13T04:50:17.599Z,21.06
2016-11-13T04:50:58.360Z,21.06
2016-11-13T04:51:39.057Z,20.48
2016-11-13T04:52:19.805Z,19.65
2016-11-13T04:53:00.461Z,18.62
2016-11-13T04:53:41.149Z,18.19
2016-11-13T04:54:21.837Z,18.5
2016-11-13T04:55:02.535Z,18.66
2016-11-13T04:55:43.208Z,18.87
2016-11-13T04:56:23.863Z,19.09
2016-11-13T04:57:04.578Z,19.13
2016-11-13T04:57:45.347Z,19.25
2016-11-13T04:58:26.059Z,19.27
2016-11-13T04:59:06.904Z,19.39
2016-11-13T04:59:48.141Z,19.3
2016-11-13T05:00:28.810Z,19.42
2016-11-13T05:01:09.393Z,19.46
2016-11-13T05:01:50.033Z,19.46
2016-11-13T05:02:30.738Z,19.47
2016-11-13T05:03:11.312Z,19.47
2016-11-13T05:03:51.918Z,19.52
2016-11-13T05:04:32.606Z,19.57
2016-11-13T05:05:13.226Z,19.55
2016-11-13T05:05:53.999Z,19.53
2016-11-13T05:06:34.656Z,19.55
2016-11-13T05:07:15.306Z,19.55
2016-11-13T05:07:55.986Z,19.57
2016-11-13T05:08:36.638Z,19.55
2016-11-13T05:09:17.305Z,19.52
2016-11-13T05:09:58.043Z,19.52
2016-11-13T05:10:38.668Z,19.57
2016-11-13T05:11:19.380Z,19.6
2016-11-13T05:12:00.084Z,19.67
2016-11-13T05:12:40.852Z,19.61
2016-11-13T05:13:21.494Z,19.64
2016-11-13T05:14:02.208Z,19.5
2016-11-13T05:14:43.516Z,19.65
2016-11-13T05:15:24.315Z,19.58
2016-11-13T05:16:04.975Z,19.65
2016-11-13T05:16:45.633Z,19.65
2016-11-13T05:17:26.343Z,19.61
2016-11-13T05:18:07.004Z,19.58
2016-11-13T05:18:47.665Z,19.65
2016-11-13T05:19:28.313Z,19.67
2016-11-13T05:20:08.968Z,19.57
2016-11-13T05:20:49.752Z,19.58
2016-11-13T05:22:42.508Z,19.52
2016-11-13T05:23:23.208Z,19.61
2016-11-13T05:24:03.940Z,19.62
2016-11-13T05:24:44.649Z,19.64
2016-11-13T05:25:25.303Z,19.64
2016-11-13T05:26:06.097Z,19.62
2016-11-13T05:26:46.788Z,19.52
2016-11-13T05:27:27.560Z,19.68
2016-11-13T05:28:08.240Z,19.67
2016-11-13T05:28:48.860Z,19.5
2016-11-13T05:29:29.599Z,19.64
2016-11-13T05:30:10.266Z,19.64
2016-11-13T05:30:50.847Z,19.62
2016-11-13T05:31:31.518Z,19.64
2016-11-13T05:32:12.164Z,19.5
2016-11-13T05:32:52.861Z,19.61
2016-11-13T05:33:33.525Z,19.5
2016-11-13T05:34:14.249Z,19.52
2016-11-13T05:34:54.985Z,19.58
2016-11-13T05:35:35.625Z,19.58
2016-11-13T05:36:16.267Z,19.6
2016-11-13T05:36:56.925Z,19.55
2016-11-13T05:37:37.603Z,19.6
2016-11-13T05:38:18.381Z,19.64
2016-11-13T05:38:59.227Z,19.55
2016-11-13T05:39:39.913Z,19.55
2016-11-13T05:40:20.650Z,19.57
2016-11-13T05:41:01.499Z,19.6
2016-11-13T05:41:42.381Z,19.61
2016-11-13T05:42:23.019Z,19.53
2016-11-13T05:43:03.732Z,19.55
2016-11-13T05:43:44.306Z,19.5
2016-11-13T05:44:25.001Z,19.52
2016-11-13T05:45:05.668Z,19.53
2016-11-13T05:45:46.448Z,19.52
2016-11-13T05:46:27.202Z,19.55
2016-11-13T05:47:07.980Z,19.49
2016-11-13T05:47:48.720Z,19.52
2016-11-13T05:48:29.308Z,19.46
2016-11-13T05:49:09.976Z,19.5
2016-11-13T05:49:50.750Z,19.47
2016-11-13T05:50:31.380Z,19.47
2016-11-13T05:51:12.022Z,19.52
2016-11-13T05:51:52.708Z,19.43
2016-11-13T05:52:33.420Z,19.43
2016-11-13T05:53:14.085Z,19.47
2016-11-13T05:53:54.760Z,19.46
2016-11-13T05:54:35.430Z,19.42
2016-11-13T05:55:16.056Z,19.47
2016-11-13T05:55:56.685Z,19.46
2016-11-13T05:56:37.340Z,19.46
2016-11-13T05:57:18.013Z,19.49
2016-11-13T05:57:58.826Z,19.5
2016-11-13T05:58:39.512Z,19.47
2016-11-13T05:59:20.145Z,19.43
2016-11-13T06:00:00.877Z,19.42
2016-11-13T06:00:41.641Z,19.42
2016-11-13T06:01:22.287Z,19.32
2016-11-13T06:02:02.971Z,19.39
2016-11-13T06:02:43.687Z,19.34
2016-11-13T06:03:24.311Z,19.34
2016-11-13T06:04:04.955Z,19.5
2016-11-13T06:04:45.613Z,19.34
2016-11-13T06:05:26.329Z,19.39
2016-11-13T06:06:07.025Z,19.35
2016-11-13T06:06:47.667Z,19.42
2016-11-13T06:07:28.412Z,19.35
2016-11-13T06:08:09.154Z,19.31
2016-11-13T06:08:49.805Z,19.35
2016-11-13T06:09:30.482Z,19.39
2016-11-13T06:10:11.138Z,19.42
2016-11-13T06:10:52.422Z,19.31
2016-11-13T06:11:33.118Z,19.3
2016-11-13T06:12:13.792Z,19.34
2016-11-13T06:12:54.474Z,19.31
2016-11-13T06:13:35.069Z,19.32
2016-11-13T06:14:15.636Z,19.27
2016-11-13T06:14:56.299Z,19.32
2016-11-13T06:15:36.955Z,19.27
2016-11-13T06:16:17.545Z,19.27
2016-11-13T06:16:58.284Z,19.3
2016-11-13T06:17:38.926Z,19.27
2016-11-13T06:18:19.522Z,19.28
2016-11-13T06:19:00.258Z,19.34
2016-11-13T06:19:41.091Z,19.32
2016-11-13T06:20:21.956Z,19.25
2016-11-13T06:21:02.700Z,19.24
2016-11-13T06:21:43.442Z,19.24
2016-11-13T06:22:24.126Z,19.28
2016-11-13T06:23:04.759Z,19.2
2016-11-13T06:23:45.407Z,19.27
2016-11-13T06:24:26.045Z,19.24
2016-11-13T06:25:06.803Z,19.24
2016-11-13T06:25:47.514Z,19.28
2016-11-13T06:26:28.265Z,19.2
2016-11-13T06:27:08.861Z,19.24
2016-11-13T06:27:49.487Z,19.21
2016-11-13T06:28:30.097Z,19.21
2016-11-13T06:29:10.792Z,19.24
2016-11-13T06:29:51.475Z,19.2
2016-11-13T06:30:32.179Z,19.17
2016-11-13T06:31:12.900Z,19.2
2016-11-13T06:31:53.748Z,19.25
2016-11-13T06:32:34.551Z,19.2
2016-11-13T06:33:15.227Z,19.16
2016-11-13T06:33:55.999Z,19.17
2016-11-13T06:34:36.623Z,19.2
2016-11-13T06:35:17.242Z,19.17
2016-11-13T06:35:58.019Z,19.12
2016-11-13T06:36:38.720Z,19.21
2016-11-13T06:37:19.396Z,19.12
2016-11-13T06:38:00.064Z,19.17
2016-11-13T06:38:40.600Z,19.17
2016-11-13T06:39:21.190Z,19.12
2016-11-13T06:40:01.852Z,19.15
2016-11-13T06:40:42.514Z,19.15
2016-11-13T06:41:23.194Z,19.13
2016-11-13T06:42:03.888Z,19.12
2016-11-13T06:42:44.610Z,19.13
2016-11-13T06:43:25.318Z,19.17
2016-11-13T06:44:05.900Z,19.1
2016-11-13T06:44:46.698Z,19.15
2016-11-13T06:45:27.387Z,19.15
2016-11-13T06:46:08.334Z,19.15
2016-11-13T06:46:49.086Z,19.13
2016-11-13T06:47:29.729Z,19.17
2016-11-13T06:48:10.729Z,19.12
2016-11-13T06:48:51.515Z,19.16
2016-11-13T06:49:32.196Z,19.13
2016-11-13T06:50:12.837Z,19.07
2016-11-13T06:50:53.449Z,19.12
2016-11-13T06:51:34.199Z,19.02
2016-11-13T06:52:15.139Z,19.1
2016-11-13T06:52:55.767Z,19.15
2016-11-13T06:53:36.567Z,19.12
2016-11-13T06:54:17.269Z,19.06
2016-11-13T06:54:58.003Z,19.02
2016-11-13T06:55:38.706Z,19.1
2016-11-13T06:56:19.431Z,19.15
2016-11-13T06:57:00.072Z,19.06
2016-11-13T06:57:40.975Z,19.05
2016-11-13T06:58:21.719Z,19.07
2016-11-13T06:59:02.477Z,19.12
2016-11-13T06:59:43.142Z,19.09
2016-11-13T07:00:23.921Z,19.05
2016-11-13T07:01:04.784Z,19.09
2016-11-13T07:01:45.485Z,19.09
2016-11-13T07:02:26.235Z,19.05
2016-11-13T07:03:07.049Z,18.91
2016-11-13T07:03:47.628Z,19.06
2016-11-13T07:04:28.367Z,19.05
2016-11-13T07:05:10.067Z,18.91
2016-11-13T07:05:50.889Z,18.9
2016-11-13T07:06:31.599Z,18.9
2016-11-13T07:07:12.302Z,18.91
2016-11-13T07:07:53.047Z,19.02
2016-11-13T07:08:33.739Z,19.05
2016-11-13T07:09:14.633Z,19.02
2016-11-13T07:09:55.244Z,19.06
2016-11-13T07:10:36.056Z,18.97
2016-11-13T07:11:16.649Z,18.9
2016-11-13T07:11:57.296Z,18.94
2016-11-13T07:12:38.112Z,18.97
2016-11-13T07:13:18.834Z,18.99
2016-11-13T07:13:59.742Z,18.94
2016-11-13T07:14:40.608Z,18.97
2016-11-13T07:15:21.357Z,18.97
2016-11-13T07:16:01.980Z,19.01
2016-11-13T07:16:42.620Z,18.99
2016-11-13T07:17:23.295Z,18.93
2016-11-13T07:18:03.888Z,18.94
2016-11-13T07:18:44.576Z,18.94
2016-11-13T07:19:25.383Z,18.91
2016-11-13T07:20:06.022Z,18.93
2016-11-13T07:20:46.937Z,18.94
2016-11-13T07:21:27.668Z,18.93
2016-11-13T07:22:08.413Z,18.93
2016-11-13T07:22:49.031Z,18.94
2016-11-13T07:23:29.777Z,18.96
2016-11-13T07:24:10.519Z,18.94
2016-11-13T07:24:51.322Z,18.97
2016-11-13T07:25:32.042Z,18.89
2016-11-13T07:26:12.762Z,18.93
2016-11-13T07:26:53.407Z,18.93
2016-11-13T07:27:34.182Z,18.9
2016-11-13T07:28:15.103Z,18.91
2016-11-13T07:28:55.893Z,18.89
2016-11-13T07:29:36.595Z,18.89
2016-11-13T07:30:17.385Z,18.9
2016-11-13T07:30:58.125Z,18.96
2016-11-13T07:31:38.771Z,18.87
2016-11-13T07:32:19.563Z,18.91
2016-11-13T07:33:00.137Z,18.93
2016-11-13T07:33:40.947Z,18.9
2016-11-13T07:34:21.701Z,18.91
2016-11-13T07:35:02.446Z,18.9
2016-11-13T07:35:43.219Z,18.9
2016-11-13T07:36:23.927Z,18.87
2016-11-13T07:37:04.716Z,18.9
2016-11-13T07:37:45.451Z,18.86
2016-11-13T07:38:26.130Z,18.9
2016-11-13T07:39:06.737Z,18.89
2016-11-13T07:39:47.560Z,18.87
2016-11-13T07:40:29.304Z,18.9
2016-11-13T07:41:09.985Z,18.89
2016-11-13T07:41:50.746Z,18.89
2016-11-13T07:42:31.534Z,18.9
2016-11-13T07:43:12.232Z,18.91
2016-11-13T07:43:53.004Z,18.89
2016-11-13T07:44:33.736Z,18.91
2016-11-13T07:45:14.782Z,18.91
2016-11-13T07:45:56.270Z,18.86
2016-11-13T07:46:36.092Z,18.91
2016-11-13T07:47:16.949Z,18.93
2016-11-13T07:47:57.872Z,18.87
2016-11-13T07:48:38.542Z,18.94
2016-11-13T07:49:19.326Z,18.89
2016-11-13T07:50:00.054Z,18.86
2016-11-13T07:50:40.851Z,18.94
2016-11-13T07:51:21.507Z,18.84
2016-11-13T07:52:02.138Z,18.91
2016-11-13T07:52:43.020Z,18.9
2016-11-13T07:53:23.703Z,18.86
2016-11-13T07:54:04.547Z,18.86
2016-11-13T07:54:45.333Z,18.91
2016-11-13T07:55:26.086Z,18.91
2016-11-13T07:56:07.086Z,18.9
2016-11-13T07:56:47.895Z,18.87
2016-11-13T07:57:28.891Z,18.89
2016-11-13T07:58:09.623Z,18.91
2016-11-13T07:58:51.995Z,18.89
2016-11-13T07:59:32.803Z,18.89
2016-11-13T08:00:13.523Z,18.87
2016-11-13T08:00:54.365Z,18.84
2016-11-13T08:01:35.187Z,18.87
2016-11-13T08:02:16.035Z,18.86
2016-11-13T08:02:56.733Z,18.82
2016-11-13T08:03:38.275Z,18.93
2016-11-13T08:04:18.348Z,18.86
2016-11-13T08:04:59.049Z,18.82
2016-11-13T08:05:39.810Z,18.9
2016-11-13T08:06:20.629Z,18.86
2016-11-13T08:07:01.224Z,18.84
2016-11-13T08:07:41.870Z,18.91
2016-11-13T08:08:22.475Z,18.87
2016-11-13T08:09:03.217Z,18.86
2016-11-13T08:09:44.101Z,18.78
2016-11-13T08:10:24.966Z,18.79
2016-11-13T08:11:05.621Z,18.9
2016-11-13T08:11:46.394Z,18.91
2016-11-13T08:12:27.254Z,18.82
2016-11-13T08:13:07.981Z,18.83
2016-11-13T08:13:48.630Z,18.83
2016-11-13T08:14:29.379Z,18.86
2016-11-13T08:15:10.119Z,18.83
2016-11-13T08:15:50.866Z,18.9
2016-11-13T08:16:31.522Z,18.86
2016-11-13T08:17:12.265Z,18.86
2016-11-13T08:17:52.982Z,18.82
2016-11-13T08:18:33.678Z,18.87
2016-11-13T08:19:14.426Z,18.83
2016-11-13T08:19:55.104Z,18.84
2016-11-13T08:20:35.799Z,18.86
2016-11-13T08:21:16.606Z,18.84
2016-11-13T08:21:57.376Z,18.82
2016-11-13T08:22:38.074Z,18.86
2016-11-13T08:23:18.832Z,18.86
2016-11-13T08:23:59.468Z,18.83
2016-11-13T08:24:40.400Z,18.84
2016-11-13T08:25:21.119Z,18.83
2016-11-13T08:26:01.828Z,18.84
2016-11-13T08:26:42.584Z,18.89
2016-11-13T08:27:23.301Z,18.83
2016-11-13T08:28:04.894Z,18.76
2016-11-13T08:28:45.724Z,18.79
2016-11-13T08:29:26.369Z,18.78
2016-11-13T08:30:07.120Z,18.86
2016-11-13T08:30:47.781Z,18.82
2016-11-13T08:31:28.525Z,18.87
2016-11-13T08:32:09.264Z,18.78
2016-11-13T08:32:49.983Z,18.82
2016-11-13T08:33:30.652Z,18.83
2016-11-13T08:34:11.314Z,18.83
2016-11-13T08:34:52.045Z,18.84
2016-11-13T08:35:32.693Z,18.83
2016-11-13T08:36:13.405Z,18.76
2016-11-13T08:36:54.163Z,18.82
2016-11-13T08:37:34.838Z,18.79
2016-11-13T08:38:15.593Z,18.76
2016-11-13T08:38:56.337Z,18.76
2016-11-13T08:39:37.004Z,18.83
2016-11-13T08:40:17.710Z,18.78
2016-11-13T08:40:58.340Z,18.84
2016-11-13T08:41:39.168Z,18.84
2016-11-13T08:42:19.883Z,18.76
2016-11-13T08:43:00.514Z,18.83
2016-11-13T08:43:41.166Z,18.78
2016-11-13T08:44:21.922Z,18.87
2016-11-13T08:45:02.585Z,18.82
2016-11-13T08:45:43.380Z,18.82
2016-11-13T08:46:24.247Z,18.82
2016-11-13T08:47:05.194Z,18.82
2016-11-13T08:47:45.968Z,18.76
2016-11-13T08:48:26.805Z,18.84
2016-11-13T08:49:07.478Z,18.82